Time;durP1;ratioP1;P1;durP2;ratioP2;P2;SDS_P1;SDS_P2;PMS_P1;PMS_P2;Temp;Humidity;BMP_temperature;BMP_pressure;BME280_temperature;BME280_humidity;BME280_pressure;Samples;Min_cycle;Max_cycle;Signal;HPM_P1;HPM_P2
2023/09/22 00:00:59;;;;;;;0.70;0.70;;;18.80;99.90;;;;;;6315937;22;20445;-85
2023/09/22 00:03:28;;;;;;;0.50;0.50;;;18.70;99.90;;;;;;6314503;22;20407;-81
2023/09/22 00:05:57;;;;;;;10.73;3.03;;;18.70;99.90;;;;;;6284145;22;20395;-81
2023/09/22 00:08:24;;;;;;;1.70;1.60;;;18.80;99.90;;;;;;6312321;22;20463;-82
2023/09/22 00:10:51;;;;;;;0.70;0.70;;;18.80;99.90;;;;;;6313196;22;20732;-81
2023/09/22 00:13:18;;;;;;;1.30;1.20;;;18.80;99.90;;;;;;6311893;22;20391;-78
2023/09/22 00:15:45;;;;;;;0.97;0.97;;;18.80;99.90;;;;;;6311597;22;20402;-78
2023/09/22 00:18:12;;;;;;;2.10;2.00;;;18.80;99.90;;;;;;6311453;22;20719;-79
2023/09/22 00:20:39;;;;;;;2.20;2.07;;;18.80;99.90;;;;;;6312435;22;20482;-83
2023/09/22 00:23:09;;;;;;;0.80;0.80;;;18.80;99.90;;;;;;6313763;22;20423;-80
2023/09/22 00:25:36;;;;;;;0.50;0.50;;;18.90;99.90;;;;;;6314567;22;20395;-82
2023/09/22 00:28:04;;;;;;;0.70;0.70;;;18.80;99.90;;;;;;6314092;22;20391;-85
2023/09/22 00:30:30;;;;;;;0.90;0.90;;;18.70;99.90;;;;;;6284662;22;20430;-77
2023/09/22 00:32:58;;;;;;;0.80;0.80;;;18.70;99.90;;;;;;6316419;22;20581;-81
2023/09/22 00:35:25;;;;;;;1.90;1.80;;;18.70;99.90;;;;;;6318073;22;20408;-83
2023/09/22 00:37:52;;;;;;;0.93;0.93;;;18.70;99.90;;;;;;6315893;22;20370;-88
2023/09/22 00:40:19;;;;;;;1.47;1.37;;;18.60;99.90;;;;;;6310950;22;20462;-85
2023/09/22 00:42:47;;;;;;;1.13;1.13;;;18.50;99.90;;;;;;6310987;22;20423;-80
2023/09/22 00:45:16;;;;;;;2.00;1.73;;;18.50;99.90;;;;;;6311120;22;20446;-80
2023/09/22 00:47:43;;;;;;;0.60;0.60;;;18.50;99.90;;;;;;6284640;22;20490;-82
2023/09/22 00:50:12;;;;;;;1.40;1.40;;;18.50;99.90;;;;;;6311755;22;20475;-83
2023/09/22 00:52:40;;;;;;;0.50;0.50;;;18.40;99.90;;;;;;6311876;22;20470;-84
2023/09/22 00:55:09;;;;;;;1.93;1.83;;;18.50;99.90;;;;;;6311548;22;20719;-86
2023/09/22 00:57:36;;;;;;;22.87;3.00;;;18.40;99.90;;;;;;6311385;22;20462;-79
2023/09/22 01:00:08;;;;;;;0.80;0.80;;;18.40;99.90;;;;;;6310818;22;20434;-81
2023/09/22 01:02:36;;;;;;;1.07;1.00;;;18.30;99.90;;;;;;6284001;22;20414;-84
2023/09/22 01:05:04;;;;;;;0.77;0.77;;;18.20;99.90;;;;;;6310148;22;20422;-82
2023/09/22 01:07:31;;;;;;;0.97;0.97;;;18.10;99.90;;;;;;6310681;22;20430;-81
2023/09/22 01:10:10;;;;;;;0.80;0.80;;;18.10;99.90;;;;;;6310053;22;20741;-80
2023/09/22 01:12:37;;;;;;;1.57;1.30;;;18.00;99.90;;;;;;6310595;22;20370;-82
2023/09/22 01:15:08;;;;;;;0.70;0.70;;;18.00;99.90;;;;;;6311218;22;20468;-83
2023/09/22 01:17:37;;;;;;;1.03;1.03;;;18.00;99.90;;;;;;6311849;22;20895;-81
2023/09/22 01:20:08;;;;;;;0.90;0.90;;;18.00;99.90;;;;;;6311607;22;20522;-82
2023/09/22 01:22:35;;;;;;;1.13;1.13;;;18.00;99.90;;;;;;6311234;22;20403;-83
2023/09/22 01:25:02;;;;;;;1.23;1.20;;;18.10;99.90;;;;;;6313172;22;20383;-80
2023/09/22 01:27:30;;;;;;;0.60;0.60;;;18.00;99.90;;;;;;6316253;22;20387;-83
2023/09/22 01:29:57;;;;;;;0.97;0.97;;;18.00;99.90;;;;;;6318616;22;20591;-83
2023/09/22 01:32:24;;;;;;;1.57;1.47;;;17.90;99.90;;;;;;6316858;22;20419;-81
2023/09/22 01:34:53;;;;;;;1.17;1.17;;;18.00;99.90;;;;;;6314789;22;20449;-81
2023/09/22 01:37:28;;;;;;;1.23;1.13;;;18.00;99.90;;;;;;6314144;22;20373;-80
2023/09/22 01:39:58;;;;;;;0.97;0.97;;;18.00;99.90;;;;;;6310466;22;20414;-82
2023/09/22 01:42:25;;;;;;;1.00;1.00;;;18.00;99.90;;;;;;6311639;22;20437;-83
2023/09/22 01:44:52;;;;;;;1.13;1.13;;;18.00;99.90;;;;;;6310685;22;20399;-84
2023/09/22 01:47:19;;;;;;;2.50;2.30;;;17.90;99.90;;;;;;6310650;22;20435;-83
2023/09/22 01:49:46;;;;;;;2.50;2.30;;;17.90;99.90;;;;;;6311702;22;20964;-80
2023/09/22 01:52:14;;;;;;;2.30;1.13;;;17.90;99.90;;;;;;6311267;22;20411;-83
2023/09/22 01:54:41;;;;;;;0.70;0.70;;;17.90;99.90;;;;;;6311702;22;20399;-84
2023/09/22 01:57:09;;;;;;;3.47;2.40;;;17.70;99.90;;;;;;6310836;22;20489;-78
2023/09/22 01:59:37;;;;;;;2.17;2.07;;;17.80;99.90;;;;;;6310078;22;20458;-78
2023/09/22 02:02:04;;;;;;;0.70;0.70;;;17.70;99.90;;;;;;6311054;22;20423;-85
2023/09/22 02:04:31;;;;;;;2.03;1.93;;;17.50;99.90;;;;;;6310841;22;20423;-83
2023/09/22 02:06:58;;;;;;;3.20;3.00;;;17.50;99.90;;;;;;6309855;22;20406;-82
2023/09/22 02:09:25;;;;;;;0.60;0.60;;;17.50;99.90;;;;;;6310370;22;20422;-83
2023/09/22 02:11:52;;;;;;;2.63;2.00;;;17.40;99.90;;;;;;6311147;22;20395;-80
2023/09/22 02:14:19;;;;;;;0.70;0.70;;;17.40;99.90;;;;;;6309701;22;20407;-81
2023/09/22 02:16:46;;;;;;;1.53;1.37;;;17.40;99.90;;;;;;6310006;22;20423;-84
2023/09/22 02:19:14;;;;;;;0.57;0.57;;;17.30;99.90;;;;;;6311447;22;20406;-85
2023/09/22 02:21:41;;;;;;;1.23;1.23;;;17.30;99.90;;;;;;6282060;22;20407;-86
2023/09/22 02:24:08;;;;;;;0.50;0.50;;;17.40;99.90;;;;;;6308598;22;20395;-79
2023/09/22 02:26:35;;;;;;;1.43;1.27;;;17.40;99.90;;;;;;6309891;22;20397;-83
2023/09/22 02:29:02;;;;;;;1.37;1.37;;;17.30;99.90;;;;;;6310802;22;20398;-81
2023/09/22 02:31:30;;;;;;;23.57;1.57;;;17.20;99.90;;;;;;6287203;22;20406;-85
2023/09/22 02:33:57;;;;;;;1.30;1.00;;;17.30;99.90;;;;;;6285769;22;20391;-80
2023/09/22 02:36:24;;;;;;;0.70;0.70;;;17.30;99.90;;;;;;6309378;22;20500;-83
2023/09/22 02:38:51;;;;;;;1.90;1.53;;;17.20;99.90;;;;;;6311370;22;20441;-80
2023/09/22 02:41:19;;;;;;;0.87;0.87;;;17.20;99.90;;;;;;6310367;22;20378;-80
2023/09/22 02:43:48;;;;;;;2.30;1.23;;;17.30;99.90;;;;;;6309927;22;20387;-79
2023/09/22 02:46:15;;;;;;;1.13;0.90;;;17.20;99.90;;;;;;6311562;22;20403;-86
2023/09/22 02:48:42;;;;;;;2.73;2.53;;;17.40;99.90;;;;;;6312760;22;20403;-84
2023/09/22 02:51:10;;;;;;;0.93;0.93;;;17.30;99.90;;;;;;6313720;22;20794;-79
2023/09/22 02:53:38;;;;;;;0.77;0.77;;;17.40;99.90;;;;;;6312487;22;20441;-84
2023/09/22 02:56:05;;;;;;;0.90;0.90;;;17.40;99.90;;;;;;6313069;22;20436;-82
2023/09/22 02:58:32;;;;;;;0.83;0.83;;;17.40;99.90;;;;;;6260494;22;20406;-78
2023/09/22 03:01:00;;;;;;;0.87;0.87;;;17.30;99.90;;;;;;6313221;22;20431;-83
2023/09/22 03:03:27;;;;;;;1.33;1.23;;;17.30;99.90;;;;;;6313266;22;20398;-80
2023/09/22 03:05:59;;;;;;;4.50;1.73;;;17.30;99.90;;;;;;6313343;22;20406;-82
2023/09/22 03:08:26;;;;;;;1.80;1.70;;;17.40;99.90;;;;;;6313167;22;20368;-86
2023/09/22 03:10:53;;;;;;;1.93;1.83;;;17.40;99.90;;;;;;6286380;22;20381;-83
2023/09/22 03:13:21;;;;;;;2.73;2.53;;;17.30;99.90;;;;;;6288948;22;20760;-82
2023/09/22 03:15:49;;;;;;;2.30;1.80;;;17.20;99.90;;;;;;6315834;22;20735;-82
2023/09/22 03:18:16;;;;;;;1.93;1.87;;;17.10;99.90;;;;;;6316141;22;20377;-83
2023/09/22 03:20:43;;;;;;;0.70;0.70;;;17.10;99.90;;;;;;6314645;22;20798;-81
2023/09/22 03:23:10;;;;;;;2.10;1.90;;;17.20;99.90;;;;;;6313253;22;20423;-80
2023/09/22 03:25:39;;;;;;;1.63;1.53;;;17.20;99.90;;;;;;6311984;22;20483;-82
2023/09/22 03:28:06;;;;;;;1.43;1.30;;;17.20;99.90;;;;;;6311862;22;20435;-81
2023/09/22 03:30:33;;;;;;;1.47;1.37;;;17.20;99.90;;;;;;6313231;22;20469;-84
2023/09/22 03:33:00;;;;;;;0.90;0.90;;;17.20;99.90;;;;;;6320260;22;20735;-83
2023/09/22 03:35:27;;;;;;;1.17;1.17;;;17.10;99.90;;;;;;6319662;22;20405;-81
2023/09/22 03:37:55;;;;;;;0.60;0.60;;;17.00;99.90;;;;;;6313614;22;20429;-81
2023/09/22 03:40:32;;;;;;;0.80;0.80;;;16.80;99.90;;;;;;6285525;22;20505;-86
2023/09/22 03:43:01;;;;;;;1.27;1.27;;;16.80;99.90;;;;;;6312705;22;20395;-80
2023/09/22 03:45:28;;;;;;;1.67;1.57;;;16.80;99.90;;;;;;6311527;22;20395;-81
2023/09/22 03:47:55;;;;;;;2.40;1.43;;;16.70;99.90;;;;;;6312288;22;20387;-81
2023/09/22 03:50:22;;;;;;;0.90;0.90;;;16.80;99.90;;;;;;6312588;22;20405;-85
2023/09/22 03:52:50;;;;;;;0.97;0.97;;;16.80;99.90;;;;;;6312123;22;20727;-82
2023/09/22 03:55:19;;;;;;;1.57;1.47;;;16.80;99.90;;;;;;6311572;22;20393;-85
2023/09/22 03:57:48;;;;;;;0.80;0.80;;;16.90;99.90;;;;;;6311341;22;20410;-84
2023/09/22 04:00:27;;;;;;;2.03;1.13;;;16.80;99.90;;;;;;6310964;22;20560;-84
2023/09/22 04:02:54;;;;;;;1.60;1.50;;;16.70;99.90;;;;;;6311904;22;20677;-83
2023/09/22 04:05:23;;;;;;;0.90;0.90;;;16.70;99.90;;;;;;6313711;22;20408;-83
2023/09/22 04:07:51;;;;;;;3.13;2.93;;;16.70;99.90;;;;;;6309525;22;20484;-80
2023/09/22 04:10:19;;;;;;;0.60;0.60;;;16.60;99.90;;;;;;6284421;22;20405;-81
2023/09/22 04:12:46;;;;;;;1.13;1.13;;;16.50;99.90;;;;;;6283646;22;20393;-81
2023/09/22 04:15:16;;;;;;;0.90;0.90;;;16.50;99.90;;;;;;6309861;22;20401;-82
2023/09/22 04:17:45;;;;;;;2.30;2.10;;;16.50;99.90;;;;;;6309676;22;20744;-79
2023/09/22 04:20:16;;;;;;;1.10;1.10;;;16.50;99.90;;;;;;6310743;22;20442;-79
2023/09/22 04:22:44;;;;;;;1.27;1.27;;;16.50;99.90;;;;;;6310636;22;20382;-81
2023/09/22 04:25:13;;;;;;;0.70;0.70;;;16.50;99.90;;;;;;6283601;22;20689;-80
2023/09/22 04:27:44;;;;;;;0.80;0.80;;;16.50;99.90;;;;;;6310680;22;20427;-78
2023/09/22 04:30:15;;;;;;;2.17;1.60;;;16.60;99.90;;;;;;6311781;22;20384;-81
2023/09/22 04:32:43;;;;;;;1.37;1.37;;;16.50;99.90;;;;;;6309330;22;20556;-80
2023/09/22 04:35:11;;;;;;;2.53;2.33;;;16.60;99.90;;;;;;6309095;22;20395;-80
2023/09/22 04:37:40;;;;;;;1.53;1.43;;;16.50;99.90;;;;;;6307592;22;20399;-84
2023/09/22 04:40:22;;;;;;;1.43;1.33;;;16.50;99.90;;;;;;6280288;22;20853;-81
2023/09/22 04:42:51;;;;;;;6.53;1.40;;;16.50;99.90;;;;;;6309830;22;20379;-82
2023/09/22 04:45:19;;;;;;;1.20;1.10;;;16.50;99.90;;;;;;6308003;22;20419;-78
2023/09/22 04:47:47;;;;;;;1.67;1.57;;;16.50;99.90;;;;;;6308044;22;20390;-80
2023/09/22 04:50:16;;;;;;;52.77;3.87;;;16.60;99.90;;;;;;6309709;22;20464;-77
2023/09/22 04:52:45;;;;;;;0.80;0.80;;;16.60;99.90;;;;;;6308361;22;20536;-85
2023/09/22 04:55:12;;;;;;;3.07;2.17;;;16.70;99.90;;;;;;6306841;22;20452;-79
2023/09/22 04:57:40;;;;;;;0.70;0.70;;;16.90;99.90;;;;;;6307839;22;20423;-84
2023/09/22 05:00:09;;;;;;;0.90;0.90;;;16.80;99.90;;;;;;6308298;22;20439;-82
2023/09/22 05:02:36;;;;;;;2.00;1.57;;;16.90;99.90;;;;;;6308610;22;20788;-82
2023/09/22 05:05:04;;;;;;;0.70;0.70;;;17.00;99.90;;;;;;6309078;22;20378;-82
2023/09/22 05:07:32;;;;;;;1.00;1.00;;;17.00;99.90;;;;;;6309809;22;20451;-81
2023/09/22 05:09:59;;;;;;;1.37;1.27;;;17.10;99.90;;;;;;6309912;22;20391;-80
2023/09/22 05:12:27;;;;;;;11.23;2.70;;;17.30;99.90;;;;;;6309443;22;20399;-81
2023/09/22 05:14:55;;;;;;;13.77;1.17;;;17.40;99.90;;;;;;6310382;22;20399;-81
2023/09/22 05:17:25;;;;;;;1.07;1.07;;;17.50;99.90;;;;;;6314430;22;20375;-83
2023/09/22 05:19:52;;;;;;;0.57;0.57;;;17.70;99.90;;;;;;6312171;22;20433;-78
2023/09/22 05:22:23;;;;;;;0.60;0.60;;;17.80;99.90;;;;;;6310918;22;20427;-82
2023/09/22 05:24:50;;;;;;;2.60;1.17;;;18.00;99.90;;;;;;6283340;22;20811;-84
2023/09/22 05:27:17;;;;;;;1.07;1.07;;;18.00;99.90;;;;;;6310959;22;20461;-81
2023/09/22 05:29:44;;;;;;;0.70;0.70;;;18.00;99.90;;;;;;6306605;22;20453;-80
2023/09/22 05:32:10;;;;;;;0.60;0.60;;;18.00;99.90;;;;;;6307138;22;20731;-80
2023/09/22 05:34:40;;;;;;;0.80;0.80;;;17.90;99.90;;;;;;6308987;22;20691;-80
2023/09/22 05:37:07;;;;;;;1.33;1.33;;;18.00;99.90;;;;;;6282726;22;20768;-85
2023/09/22 05:39:34;;;;;;;0.60;0.60;;;18.00;99.90;;;;;;6310262;22;20940;-79
2023/09/22 05:42:01;;;;;;;0.80;0.80;;;18.00;99.90;;;;;;6309876;22;20552;-82
2023/09/22 05:44:29;;;;;;;1.00;1.00;;;18.00;99.90;;;;;;6313512;22;20434;-83
2023/09/22 05:46:56;;;;;;;0.60;0.60;;;18.00;99.90;;;;;;6313735;22;20637;-81
2023/09/22 05:49:23;;;;;;;0.90;0.90;;;18.00;99.90;;;;;;6310546;22;20477;-83
2023/09/22 05:51:51;;;;;;;0.60;0.60;;;18.20;99.90;;;;;;6282776;22;20446;-79
2023/09/22 05:54:18;;;;;;;2.17;1.27;;;18.30;99.90;;;;;;6309357;22;20433;-81
2023/09/22 05:56:46;;;;;;;2.10;2.00;;;18.30;99.90;;;;;;6307442;22;20399;-82
2023/09/22 05:59:13;;;;;;;0.70;0.70;;;18.30;99.90;;;;;;6308587;22;20518;-86
2023/09/22 06:01:40;;;;;;;1.33;1.23;;;18.40;99.90;;;;;;6309676;22;20454;-83
2023/09/22 06:04:09;;;;;;;0.60;0.60;;;18.50;99.90;;;;;;6309535;22;20470;-81
2023/09/22 06:06:36;;;;;;;3.17;1.17;;;18.50;99.90;;;;;;6313369;22;20391;-82
2023/09/22 06:09:10;;;;;;;0.80;0.80;;;18.40;99.90;;;;;;6308262;22;20395;-82
2023/09/22 06:11:38;;;;;;;3.30;2.53;;;18.60;99.90;;;;;;6310867;22;20568;-83
2023/09/22 06:14:05;;;;;;;0.80;0.80;;;18.60;99.90;;;;;;6313554;22;20392;-81
2023/09/22 06:16:32;;;;;;;2.40;2.20;;;18.60;99.90;;;;;;6314169;22;20415;-82
2023/09/22 06:19:00;;;;;;;1.10;1.10;;;18.70;99.90;;;;;;6314339;22;20366;-81
2023/09/22 06:21:29;;;;;;;1.00;1.00;;;18.70;99.90;;;;;;6315142;22;20451;-82
2023/09/22 06:23:57;;;;;;;1.17;1.17;;;18.80;99.90;;;;;;6287007;22;20429;-80
2023/09/22 06:26:24;;;;;;;1.03;1.03;;;19.00;99.90;;;;;;6314954;22;20387;-80
2023/09/22 06:28:51;;;;;;;2.60;2.40;;;19.30;99.90;;;;;;6315152;22;20415;-80
2023/09/22 06:31:18;;;;;;;0.90;0.90;;;19.30;99.90;;;;;;6314695;22;20399;-81
2023/09/22 06:33:45;;;;;;;0.80;0.80;;;19.40;99.90;;;;;;6314178;22;20362;-81
2023/09/22 06:36:12;;;;;;;0.90;0.90;;;19.40;99.90;;;;;;6314088;22;20433;-81
2023/09/22 06:38:39;;;;;;;1.10;1.10;;;19.60;99.90;;;;;;6282075;22;20402;-84
2023/09/22 06:41:07;;;;;;;0.80;0.80;;;19.70;99.90;;;;;;6308538;22;20412;-83
2023/09/22 06:43:33;;;;;;;0.70;0.70;;;19.70;99.90;;;;;;6313068;22;20395;-82
2023/09/22 06:46:04;;;;;;;0.80;0.80;;;19.80;99.90;;;;;;6313419;22;20391;-84
2023/09/22 06:48:32;;;;;;;5.10;2.87;;;20.10;99.90;;;;;;6312114;22;20402;-83
2023/09/22 06:51:00;;;;;;;2.70;0.97;;;20.40;99.90;;;;;;6310982;22;20438;-85
2023/09/22 06:53:32;;;;;;;0.63;0.63;;;20.80;99.90;;;;;;6308614;22;20685;-83
2023/09/22 06:56:11;;;;;;;1.57;1.47;;;21.40;99.90;;;;;;6312481;22;20343;-82
2023/09/22 06:58:40;;;;;;;1.47;1.37;;;21.90;99.90;;;;;;6318793;22;20603;-82
2023/09/22 07:01:14;;;;;;;1.53;1.43;;;22.50;99.90;;;;;;6315147;22;20767;-84
2023/09/22 07:03:42;;;;;;;0.90;0.90;;;22.50;99.90;;;;;;6313982;22;20900;-82
2023/09/22 07:06:13;;;;;;;3.40;3.20;;;22.70;99.90;;;;;;6314757;22;20403;-83
2023/09/22 07:08:40;;;;;;;1.63;1.53;;;23.20;99.90;;;;;;6317120;22;20399;-83
2023/09/22 07:11:09;;;;;;;0.90;0.90;;;23.10;99.90;;;;;;6289222;22;20387;-85
2023/09/22 07:13:37;;;;;;;0.70;0.70;;;23.30;99.90;;;;;;6313193;22;20358;-82
2023/09/22 07:16:04;;;;;;;1.47;1.37;;;23.30;99.90;;;;;;6312939;22;20368;-82
2023/09/22 07:18:32;;;;;;;1.43;1.33;;;23.80;99.90;;;;;;6313197;22;20403;-83
2023/09/22 07:21:00;;;;;;;1.57;1.50;;;23.80;99.90;;;;;;6312929;22;20425;-82
2023/09/22 07:23:30;;;;;;;1.77;1.67;;;24.30;99.90;;;;;;6312803;22;20369;-84
2023/09/22 07:25:58;;;;;;;0.80;0.80;;;24.80;99.90;;;;;;6313561;22;20429;-83
2023/09/22 07:28:27;;;;;;;2.80;2.60;;;25.30;99.90;;;;;;6317067;22;20414;-81
2023/09/22 07:30:53;;;;;;;6.00;3.50;;;25.90;99.90;;;;;;6326626;22;20393;-81
2023/09/22 07:33:23;;;;;;;2.17;2.07;;;26.50;99.90;;;;;;6325868;22;20366;-80
2023/09/22 07:35:50;;;;;;;3.90;1.93;;;26.70;99.90;;;;;;6300703;22;20387;-81
2023/09/22 07:38:18;;;;;;;3.40;3.00;;;26.10;99.90;;;;;;6305209;22;20396;-80
2023/09/22 07:40:45;;;;;;;1.10;1.10;;;25.40;99.90;;;;;;6332570;22;20474;-84
2023/09/22 07:43:12;;;;;;;2.20;2.10;;;25.00;99.90;;;;;;6332547;22;20416;-83
2023/09/22 07:45:39;;;;;;;1.27;1.27;;;25.20;99.90;;;;;;6328419;22;20654;-84
2023/09/22 07:48:07;;;;;;;1.20;1.20;;;25.30;99.90;;;;;;6293174;22;20371;-83
2023/09/22 07:50:38;;;;;;;1.17;1.17;;;25.70;99.90;;;;;;6315370;22;20393;-82
2023/09/22 07:53:05;;;;;;;1.97;1.87;;;25.60;99.90;;;;;;6315739;22;20409;-83
2023/09/22 07:55:32;;;;;;;1.70;1.60;;;26.40;99.90;;;;;;6315197;22;20393;-81
2023/09/22 07:57:59;;;;;;;0.90;0.90;;;26.40;99.90;;;;;;6315013;22;20401;-84
2023/09/22 08:00:26;;;;;;;1.67;1.30;;;26.70;99.90;;;;;;6314926;22;20398;-82
2023/09/22 08:02:53;;;;;;;1.50;1.40;;;26.40;99.90;;;;;;6289109;22;20383;-84
2023/09/22 08:05:21;;;;;;;0.90;0.90;;;26.80;99.90;;;;;;6314601;22;20394;-83
2023/09/22 08:07:51;;;;;;;1.00;1.00;;;26.80;99.90;;;;;;6314034;22;20452;-82
2023/09/22 08:10:18;;;;;;;1.60;1.50;;;26.50;99.90;;;;;;6315224;22;20616;-83
2023/09/22 08:12:46;;;;;;;1.00;1.00;;;27.20;99.90;;;;;;6317133;22;20383;-84
2023/09/22 08:15:14;;;;;;;1.33;1.33;;;27.40;99.90;;;;;;6316285;22;20597;-83
2023/09/22 08:17:45;;;;;;;1.10;1.10;;;27.70;99.90;;;;;;6286851;22;20428;-85
2023/09/22 08:20:13;;;;;;;1.73;1.63;;;27.60;99.80;;;;;;6315851;22;20595;-84
2023/09/22 08:22:44;;;;;;;1.47;1.37;;;27.20;99.50;;;;;;6315143;22;20431;-85
2023/09/22 08:25:11;;;;;;;0.90;0.90;;;27.00;99.50;;;;;;6315378;22;20395;-84
2023/09/22 08:27:38;;;;;;;0.83;0.83;;;26.60;99.90;;;;;;6315329;22;20399;-85
2023/09/22 08:30:13;;;;;;;0.90;0.90;;;26.10;99.90;;;;;;6287475;22;20753;-85
2023/09/22 08:32:43;;;;;;;1.33;1.23;;;25.60;99.90;;;;;;6316575;22;20379;-84
2023/09/22 08:35:12;;;;;;;1.50;1.40;;;25.40;99.90;;;;;;6315651;22;20425;-83
2023/09/22 08:37:42;;;;;;;1.20;1.07;;;25.20;99.90;;;;;;6315335;22;20742;-85
2023/09/22 08:40:17;;;;;;;1.63;1.53;;;25.10;99.90;;;;;;6314897;22;20373;-87
2023/09/22 08:42:48;;;;;;;0.93;0.93;;;24.80;99.90;;;;;;6288713;22;20418;-86
2023/09/22 08:45:15;;;;;;;1.30;1.20;;;24.50;99.90;;;;;;6315264;22;20351;-85
2023/09/22 08:47:46;;;;;;;1.13;1.13;;;24.10;99.90;;;;;;6315781;22;20466;-86
2023/09/22 08:50:14;;;;;;;0.90;0.90;;;24.20;99.90;;;;;;6315174;22;20407;-83
2023/09/22 08:52:46;;;;;;;0.80;0.80;;;24.60;99.90;;;;;;6287970;22;20403;-88
2023/09/22 08:55:14;;;;;;;0.90;0.90;;;24.30;99.90;;;;;;6315319;22;20425;-86
2023/09/22 08:57:45;;;;;;;1.03;1.00;;;24.10;99.90;;;;;;6315389;22;20403;-86
2023/09/22 09:00:26;;;;;;;0.80;0.80;;;24.00;99.90;;;;;;6314750;22;20447;-82
2023/09/22 09:03:06;;;;;;;0.80;0.80;;;23.90;99.90;;;;;;6315982;22;20372;-87
2023/09/22 09:05:33;;;;;;;0.80;0.80;;;23.70;99.90;;;;;;6316687;22;20358;-85
2023/09/22 09:08:11;;;;;;;0.90;0.90;;;23.60;99.90;;;;;;6317199;22;20632;-84
2023/09/22 09:10:39;;;;;;;4.20;3.23;;;23.60;99.90;;;;;;6316296;22;20369;-86
2023/09/22 09:13:07;;;;;;;0.90;0.90;;;23.90;99.90;;;;;;6315983;22;20399;-85
2023/09/22 09:15:48;;;;;;;1.57;1.47;;;23.90;99.90;;;;;;6315897;22;20399;-84
2023/09/22 09:18:20;;;;;;;0.80;0.70;;;24.20;99.90;;;;;;6315088;22;20400;-84
2023/09/22 09:21:09;;;;;;;0.70;0.70;;;24.10;99.90;;;;;;6317740;22;20392;-85
2023/09/22 09:23:38;;;;;;;0.87;0.87;;;23.60;99.90;;;;;;6316662;22;20422;-85
2023/09/22 09:26:04;;;;;;;1.57;1.47;;;23.20;99.90;;;;;;6315797;22;20362;-89
2023/09/22 09:28:31;;;;;;;0.90;0.90;;;23.10;99.90;;;;;;6289359;22;20369;-84
2023/09/22 09:31:03;;;;;;;0.80;0.80;;;23.00;99.90;;;;;;6315263;22;20720;-84
2023/09/22 09:33:34;;;;;;;0.80;0.80;;;22.80;99.90;;;;;;6316796;22;20388;-84
2023/09/22 09:36:14;;;;;;;1.33;1.23;;;22.70;99.90;;;;;;6317938;22;20816;-82
2023/09/22 09:38:42;;;;;;;0.77;0.77;;;22.90;99.90;;;;;;6332006;22;20390;-84
2023/09/22 09:41:10;;;;;;;1.97;1.87;;;23.20;99.90;;;;;;6301050;22;20991;-86
2023/09/22 09:43:44;;;;;;;0.80;0.80;;;23.40;99.90;;;;;;6320039;22;20381;-88
2023/09/22 09:46:15;;;;;;;3.33;1.20;;;23.40;99.90;;;;;;6320012;22;20375;-86
2023/09/22 09:48:45;;;;;;;0.90;0.90;;;23.70;99.90;;;;;;6318432;22;20351;-87
2023/09/22 09:51:19;;;;;;;0.90;0.90;;;23.90;99.90;;;;;;6323732;22;20369;-86
2023/09/22 09:53:49;;;;;;;0.90;0.90;;;24.20;99.90;;;;;;6330624;22;20406;-85
2023/09/22 09:56:17;;;;;;;0.93;0.93;;;24.50;99.90;;;;;;6332302;22;20395;-83
2023/09/22 09:58:48;;;;;;;0.80;0.80;;;24.50;99.90;;;;;;6329735;22;20369;-82
2023/09/22 10:01:17;;;;;;;0.80;0.80;;;24.60;99.90;;;;;;6317802;22;20423;-87
2023/09/22 10:03:45;;;;;;;2.17;2.07;;;24.50;99.90;;;;;;6323914;22;20445;-86
2023/09/22 10:06:16;;;;;;;0.80;0.80;;;24.40;99.90;;;;;;6317389;22;20374;-84
2023/09/22 10:08:43;;;;;;;1.10;1.10;;;24.50;99.90;;;;;;6314372;22;20748;-85
2023/09/22 10:11:13;;;;;;;0.80;0.80;;;24.70;99.90;;;;;;6314606;22;20392;-84
2023/09/22 10:13:40;;;;;;;0.90;0.90;;;25.10;99.90;;;;;;6315109;22;20370;-86
2023/09/22 10:16:11;;;;;;;1.33;1.27;;;25.30;99.90;;;;;;6313306;22;20395;-83
2023/09/22 10:18:52;;;;;;;0.90;0.90;;;25.60;99.90;;;;;;6313225;22;20667;-85
2023/09/22 10:21:41;;;;;;;4.60;1.07;;;25.80;99.90;;;;;;6313505;22;20431;-86
2023/09/22 10:24:32;;;;;;;1.17;1.10;;;25.80;99.90;;;;;;6316534;22;20699;-84
2023/09/22 10:27:07;;;;;;;0.80;0.80;;;25.70;99.90;;;;;;6313755;22;20453;-82
2023/09/22 10:29:35;;;;;;;1.03;1.03;;;25.70;99.90;;;;;;6314480;22;20367;-83
2023/09/22 10:32:17;;;;;;;0.90;0.90;;;25.50;99.90;;;;;;6315215;22;20406;-87
2023/09/22 10:34:47;;;;;;;1.37;1.27;;;25.30;99.90;;;;;;6315375;22;20391;-85
2023/09/22 10:37:20;;;;;;;1.53;1.43;;;25.10;99.90;;;;;;6314830;22;20387;-87
2023/09/22 10:40:13;;;;;;;0.77;0.77;;;25.00;99.90;;;;;;6316508;22;20362;-90
2023/09/22 10:42:46;;;;;;;1.07;1.07;;;25.10;99.90;;;;;;6313608;22;20419;-86
2023/09/22 10:45:14;;;;;;;0.90;0.90;;;25.00;99.90;;;;;;6313696;22;20376;-84
2023/09/22 10:47:55;;;;;;;1.03;1.03;;;25.10;99.90;;;;;;6315301;22;20416;-85
2023/09/22 10:50:30;;;;;;;1.83;1.57;;;24.80;99.90;;;;;;6283110;22;20430;-87
2023/09/22 10:53:04;;;;;;;0.80;0.80;;;24.80;99.90;;;;;;6315191;22;20606;-87
2023/09/22 10:55:38;;;;;;;0.90;0.90;;;24.90;99.90;;;;;;6314257;22;20372;-85
2023/09/22 10:58:21;;;;;;;4.00;1.77;;;25.10;99.90;;;;;;6314062;22;20398;-84
2023/09/22 11:00:59;;;;;;;1.10;1.10;;;24.90;99.90;;;;;;6315180;22;20728;-84
2023/09/22 11:03:27;;;;;;;0.80;0.80;;;24.90;99.90;;;;;;6310001;22;20371;-86
2023/09/22 11:06:06;;;;;;;0.80;0.80;;;24.90;99.90;;;;;;6313491;22;20370;-82
2023/09/22 11:08:51;;;;;;;1.77;1.67;;;24.80;99.90;;;;;;6318048;22;20380;-84
2023/09/22 11:11:19;;;;;;;1.23;1.20;;;24.80;99.90;;;;;;6319199;22;20852;-85
2023/09/22 11:13:56;;;;;;;0.90;0.90;;;24.30;99.90;;;;;;6316954;22;20399;-86
2023/09/22 11:16:26;;;;;;;1.60;1.50;;;24.10;99.90;;;;;;6319608;22;20678;-85
2023/09/22 11:19:11;;;;;;;1.10;1.10;;;24.10;99.90;;;;;;6319088;22;20375;-86
2023/09/22 11:21:39;;;;;;;1.20;1.10;;;24.20;99.90;;;;;;6318553;22;20503;-87
2023/09/22 11:24:08;;;;;;;0.97;0.97;;;24.50;99.90;;;;;;6319502;22;20466;-81
2023/09/22 11:26:42;;;;;;;0.90;0.90;;;24.40;99.90;;;;;;6318818;22;20390;-88
2023/09/22 11:29:09;;;;;;;1.40;1.30;;;24.30;99.90;;;;;;6292566;22;20473;-84
2023/09/22 11:31:49;;;;;;;0.97;0.97;;;24.20;99.90;;;;;;6320302;22;20468;-88
2023/09/22 11:34:18;;;;;;;2.67;2.03;;;24.30;99.90;;;;;;6318511;22;20375;-85
2023/09/22 11:36:50;;;;;;;0.83;0.83;;;24.40;99.90;;;;;;6299890;22;20376;-84
2023/09/22 11:39:27;;;;;;;1.50;1.40;;;24.20;99.90;;;;;;6328839;22;20354;-85
2023/09/22 11:41:54;;;;;;;0.80;0.80;;;24.10;99.90;;;;;;6319955;22;20480;-86
2023/09/22 11:44:22;;;;;;;5.30;4.07;;;24.00;99.90;;;;;;6319264;22;20387;-87
2023/09/22 11:46:49;;;;;;;1.67;1.57;;;23.90;99.90;;;;;;6303657;22;20399;-87
2023/09/22 11:49:16;;;;;;;0.93;0.93;;;23.90;99.90;;;;;;6329048;22;20353;-87
2023/09/22 11:51:58;;;;;;;26.17;1.73;;;23.90;99.90;;;;;;6327191;22;20495;-86
2023/09/22 11:54:28;;;;;;;0.70;0.70;;;24.00;99.90;;;;;;6328581;22;20358;-83
2023/09/22 11:56:58;;;;;;;0.73;0.73;;;24.10;99.90;;;;;;6319434;22;20562;-85
2023/09/22 11:59:34;;;;;;;0.80;0.80;;;24.20;99.90;;;;;;6315628;22;20350;-85
2023/09/22 12:02:04;;;;;;;0.80;0.80;;;24.30;99.90;;;;;;6328911;22;20420;-83
2023/09/22 12:04:37;;;;;;;0.80;0.80;;;24.40;99.90;;;;;;6335173;22;20430;-79
2023/09/22 12:07:05;;;;;;;0.70;0.70;;;24.00;99.90;;;;;;6308050;22;20370;-82
2023/09/22 12:09:32;;;;;;;0.93;0.93;;;23.90;99.90;;;;;;6334060;22;20378;-79
2023/09/22 12:11:59;;;;;;;0.90;0.90;;;24.10;99.90;;;;;;6334635;22;20358;-84
2023/09/22 12:14:29;;;;;;;1.97;1.87;;;24.10;99.90;;;;;;6306106;22;20421;-86
2023/09/22 12:16:56;;;;;;;0.70;0.70;;;23.90;99.90;;;;;;6293236;22;20366;-86
2023/09/22 12:19:25;;;;;;;0.80;0.80;;;23.90;99.90;;;;;;6321815;22;20366;-88
2023/09/22 12:21:52;;;;;;;0.90;0.90;;;23.90;99.90;;;;;;6321901;22;20414;-89
2023/09/22 12:24:20;;;;;;;1.57;1.47;;;23.60;99.90;;;;;;6294118;22;20398;-86
2023/09/22 12:26:47;;;;;;;0.90;0.90;;;23.50;99.90;;;;;;6323721;22;20362;-87
2023/09/22 12:29:16;;;;;;;1.20;1.10;;;23.40;99.90;;;;;;6320347;22;20418;-87
2023/09/22 12:31:44;;;;;;;0.90;0.90;;;23.30;99.90;;;;;;6325734;22;20374;-84
2023/09/22 12:34:12;;;;;;;0.70;0.70;;;23.10;99.90;;;;;;6327085;22;20500;-83
2023/09/22 12:36:39;;;;;;;1.57;1.13;;;22.90;99.90;;;;;;6325075;22;20374;-83
2023/09/22 12:39:10;;;;;;;1.60;1.50;;;22.80;99.90;;;;;;6328451;22;20370;-84
2023/09/22 12:41:37;;;;;;;1.10;1.10;;;22.80;99.90;;;;;;6326329;22;20411;-88
2023/09/22 12:44:04;;;;;;;1.57;1.47;;;22.90;99.90;;;;;;6317629;22;20366;-85
2023/09/22 12:46:31;;;;;;;1.30;1.30;;;22.90;99.90;;;;;;6320477;22;20429;-84
2023/09/22 12:48:59;;;;;;;1.37;1.30;;;22.90;99.90;;;;;;6316571;22;20362;-89
2023/09/22 12:51:26;;;;;;;0.70;0.70;;;22.70;99.90;;;;;;6319295;22;20414;-84
2023/09/22 12:53:53;;;;;;;0.90;0.90;;;22.50;99.90;;;;;;6292125;22;20371;-88
2023/09/22 12:56:20;;;;;;;1.00;1.00;;;22.50;99.90;;;;;;6316365;22;20433;-86